sensor_id;sensor_type;location;lat;lon;timestamp;temperature;humidity
76607;DHT22;65498;50.916;4.698;2023-04-03T00:00:51;21.20;45.00
76607;DHT22;65498;50.916;4.698;2023-04-03T00:03:19;21.10;45.00
76607;DHT22;65498;50.916;4.698;2023-04-03T00:05:47;21.10;45.00
76607;DHT22;65498;50.916;4.698;2023-04-03T00:08:14;21.00;44.90
76607;DHT22;65498;50.916;4.698;2023-04-03T00:10:42;21.10;44.90
76607;DHT22;65498;50.916;4.698;2023-04-03T00:13:10;21.10;44.70
76607;DHT22;65498;50.916;4.698;2023-04-03T00:15:38;21.00;44.80
76607;DHT22;65498;50.916;4.698;2023-04-03T00:18:06;21.00;44.70
76607;DHT22;65498;50.916;4.698;2023-04-03T00:20:34;21.00;45.00
76607;DHT22;65498;50.916;4.698;2023-04-03T00:23:02;21.00;44.60
76607;DHT22;65498;50.916;4.698;2023-04-03T00:25:30;21.00;44.80
76607;DHT22;65498;50.916;4.698;2023-04-03T00:27:58;20.90;44.70
76607;DHT22;65498;50.916;4.698;2023-04-03T00:30:26;20.90;44.60
76607;DHT22;65498;50.916;4.698;2023-04-03T00:32:53;20.90;44.50
76607;DHT22;65498;50.916;4.698;2023-04-03T00:35:22;20.90;44.90
76607;DHT22;65498;50.916;4.698;2023-04-03T00:37:53;20.90;44.80
76607;DHT22;65498;50.916;4.698;2023-04-03T00:40:24;20.80;44.70
76607;DHT22;65498;50.916;4.698;2023-04-03T00:42:57;20.80;44.90
76607;DHT22;65498;50.916;4.698;2023-04-03T00:45:40;20.80;44.50
76607;DHT22;65498;50.916;4.698;2023-04-03T00:48:11;20.80;44.40
76607;DHT22;65498;50.916;4.698;2023-04-03T00:50:41;20.80;44.70
76607;DHT22;65498;50.916;4.698;2023-04-03T00:53:13;20.80;44.50
76607;DHT22;65498;50.916;4.698;2023-04-03T00:55:42;20.80;44.50
76607;DHT22;65498;50.916;4.698;2023-04-03T00:58:10;20.80;44.60
76607;DHT22;65498;50.916;4.698;2023-04-03T01:00:42;20.70;44.50
76607;DHT22;65498;50.916;4.698;2023-04-03T01:03:09;20.70;44.60
76607;DHT22;65498;50.916;4.698;2023-04-03T01:05:37;20.70;45.20
76607;DHT22;65498;50.916;4.698;2023-04-03T01:08:05;20.70;44.50
76607;DHT22;65498;50.916;4.698;2023-04-03T01:10:33;20.70;43.80
76607;DHT22;65498;50.916;4.698;2023-04-03T01:13:00;20.70;44.50
76607;DHT22;65498;50.916;4.698;2023-04-03T01:15:29;20.60;44.50
76607;DHT22;65498;50.916;4.698;2023-04-03T01:17:58;20.60;44.40
76607;DHT22;65498;50.916;4.698;2023-04-03T01:20:36;20.60;44.40
76607;DHT22;65498;50.916;4.698;2023-04-03T01:25:41;20.60;44.30
76607;DHT22;65498;50.916;4.698;2023-04-03T01:28:12;20.60;44.30
76607;DHT22;65498;50.916;4.698;2023-04-03T01:33:29;20.60;44.40
76607;DHT22;65498;50.916;4.698;2023-04-03T01:35:56;20.50;44.40
76607;DHT22;65498;50.916;4.698;2023-04-03T01:38:24;20.50;44.40
76607;DHT22;65498;50.916;4.698;2023-04-03T01:40:52;20.50;44.30
76607;DHT22;65498;50.916;4.698;2023-04-03T01:43:19;20.50;44.30
76607;DHT22;65498;50.916;4.698;2023-04-03T01:45:47;20.50;44.00
76607;DHT22;65498;50.916;4.698;2023-04-03T01:48:17;20.50;44.30
76607;DHT22;65498;50.916;4.698;2023-04-03T01:50:44;20.50;44.30
76607;DHT22;65498;50.916;4.698;2023-04-03T01:53:13;20.50;44.00
76607;DHT22;65498;50.916;4.698;2023-04-03T01:55:41;20.40;44.30
76607;DHT22;65498;50.916;4.698;2023-04-03T01:58:08;20.40;44.30
76607;DHT22;65498;50.916;4.698;2023-04-03T02:00:36;20.40;44.30
76607;DHT22;65498;50.916;4.698;2023-04-03T02:03:04;20.40;44.10
76607;DHT22;65498;50.916;4.698;2023-04-03T02:05:32;20.40;44.30
76607;DHT22;65498;50.916;4.698;2023-04-03T02:08:00;20.40;43.90
76607;DHT22;65498;50.916;4.698;2023-04-03T02:10:27;20.40;44.10
76607;DHT22;65498;50.916;4.698;2023-04-03T02:12:55;20.40;44.00
76607;DHT22;65498;50.916;4.698;2023-04-03T02:15:22;20.40;44.10
76607;DHT22;65498;50.916;4.698;2023-04-03T02:17:50;20.40;44.20
76607;DHT22;65498;50.916;4.698;2023-04-03T02:20:19;20.30;44.10
76607;DHT22;65498;50.916;4.698;2023-04-03T02:22:47;20.30;44.10
76607;DHT22;65498;50.916;4.698;2023-04-03T02:25:14;20.30;43.90
76607;DHT22;65498;50.916;4.698;2023-04-03T02:27:44;20.40;44.10
76607;DHT22;65498;50.916;4.698;2023-04-03T02:30:12;20.30;44.00
76607;DHT22;65498;50.916;4.698;2023-04-03T02:32:42;20.30;44.30
76607;DHT22;65498;50.916;4.698;2023-04-03T02:35:11;20.30;43.80
76607;DHT22;65498;50.916;4.698;2023-04-03T02:37:39;20.30;44.00
76607;DHT22;65498;50.916;4.698;2023-04-03T02:40:07;20.20;43.90
76607;DHT22;65498;50.916;4.698;2023-04-03T02:42:35;20.20;44.10
76607;DHT22;65498;50.916;4.698;2023-04-03T02:45:03;20.20;44.00
76607;DHT22;65498;50.916;4.698;2023-04-03T02:47:31;20.20;44.10
76607;DHT22;65498;50.916;4.698;2023-04-03T02:49:59;20.20;43.80
76607;DHT22;65498;50.916;4.698;2023-04-03T02:52:26;20.20;44.00
76607;DHT22;65498;50.916;4.698;2023-04-03T02:54:54;20.20;44.00
76607;DHT22;65498;50.916;4.698;2023-04-03T02:57:21;20.20;44.00
76607;DHT22;65498;50.916;4.698;2023-04-03T02:59:49;20.10;43.90
76607;DHT22;65498;50.916;4.698;2023-04-03T03:02:16;20.10;44.00
76607;DHT22;65498;50.916;4.698;2023-04-03T03:04:44;20.10;43.80
76607;DHT22;65498;50.916;4.698;2023-04-03T03:07:11;20.10;44.00
76607;DHT22;65498;50.916;4.698;2023-04-03T03:09:39;20.10;43.40
76607;DHT22;65498;50.916;4.698;2023-04-03T03:12:07;20.10;43.90
76607;DHT22;65498;50.916;4.698;2023-04-03T03:14:34;20.00;43.60
76607;DHT22;65498;50.916;4.698;2023-04-03T03:17:02;20.00;43.70
76607;DHT22;65498;50.916;4.698;2023-04-03T03:19:29;20.00;43.80
76607;DHT22;65498;50.916;4.698;2023-04-03T03:21:57;20.00;43.70
76607;DHT22;65498;50.916;4.698;2023-04-03T03:24:24;20.00;43.70
76607;DHT22;65498;50.916;4.698;2023-04-03T03:26:52;20.00;43.60
76607;DHT22;65498;50.916;4.698;2023-04-03T03:29:19;20.00;43.90
76607;DHT22;65498;50.916;4.698;2023-04-03T03:31:47;20.00;43.90
76607;DHT22;65498;50.916;4.698;2023-04-03T03:34:14;20.00;43.60
76607;DHT22;65498;50.916;4.698;2023-04-03T03:36:42;20.00;43.90
76607;DHT22;65498;50.916;4.698;2023-04-03T03:39:10;20.00;43.50
76607;DHT22;65498;50.916;4.698;2023-04-03T03:41:37;20.00;43.50
76607;DHT22;65498;50.916;4.698;2023-04-03T03:44:05;20.00;43.70
76607;DHT22;65498;50.916;4.698;2023-04-03T03:46:32;19.90;43.60
76607;DHT22;65498;50.916;4.698;2023-04-03T03:49:00;20.00;43.80
76607;DHT22;65498;50.916;4.698;2023-04-03T03:51:27;20.00;43.40
76607;DHT22;65498;50.916;4.698;2023-04-03T03:53:55;19.90;43.60
76607;DHT22;65498;50.916;4.698;2023-04-03T03:56:22;19.90;43.60
76607;DHT22;65498;50.916;4.698;2023-04-03T03:58:50;19.90;43.80
76607;DHT22;65498;50.916;4.698;2023-04-03T04:01:17;19.90;43.70
76607;DHT22;65498;50.916;4.698;2023-04-03T04:03:45;19.90;43.60
76607;DHT22;65498;50.916;4.698;2023-04-03T04:06:13;19.90;43.40
76607;DHT22;65498;50.916;4.698;2023-04-03T04:08:40;19.80;43.40
76607;DHT22;65498;50.916;4.698;2023-04-03T04:11:08;19.80;43.80
76607;DHT22;65498;50.916;4.698;2023-04-03T04:13:36;19.80;43.70
76607;DHT22;65498;50.916;4.698;2023-04-03T04:16:04;19.80;43.60
76607;DHT22;65498;50.916;4.698;2023-04-03T04:18:33;19.80;43.60
76607;DHT22;65498;50.916;4.698;2023-04-03T04:21:00;19.80;43.50
76607;DHT22;65498;50.916;4.698;2023-04-03T04:23:28;19.80;43.40
76607;DHT22;65498;50.916;4.698;2023-04-03T04:25:56;19.80;43.40
76607;DHT22;65498;50.916;4.698;2023-04-03T04:28:23;19.80;43.60
76607;DHT22;65498;50.916;4.698;2023-04-03T04:30:51;19.70;43.40
76607;DHT22;65498;50.916;4.698;2023-04-03T04:33:18;19.70;43.50
76607;DHT22;65498;50.916;4.698;2023-04-03T04:35:47;19.70;43.60
76607;DHT22;65498;50.916;4.698;2023-04-03T04:38:15;19.80;43.40
76607;DHT22;65498;50.916;4.698;2023-04-03T04:40:43;19.70;43.90
76607;DHT22;65498;50.916;4.698;2023-04-03T04:43:11;19.70;43.60
76607;DHT22;65498;50.916;4.698;2023-04-03T04:45:40;19.70;44.10
76607;DHT22;65498;50.916;4.698;2023-04-03T04:48:08;19.70;43.40
76607;DHT22;65498;50.916;4.698;2023-04-03T04:50:35;19.70;43.40
76607;DHT22;65498;50.916;4.698;2023-04-03T04:53:03;19.70;43.60
76607;DHT22;65498;50.916;4.698;2023-04-03T04:55:31;19.70;43.50
76607;DHT22;65498;50.916;4.698;2023-04-03T04:57:59;19.70;43.70
76607;DHT22;65498;50.916;4.698;2023-04-03T05:00:26;19.70;43.40
76607;DHT22;65498;50.916;4.698;2023-04-03T05:02:53;19.70;43.70
76607;DHT22;65498;50.916;4.698;2023-04-03T05:05:21;19.60;43.40
76607;DHT22;65498;50.916;4.698;2023-04-03T05:07:49;19.60;43.60
76607;DHT22;65498;50.916;4.698;2023-04-03T05:10:17;19.60;43.30
76607;DHT22;65498;50.916;4.698;2023-04-03T05:12:44;19.60;43.20
76607;DHT22;65498;50.916;4.698;2023-04-03T05:15:12;19.60;43.30
76607;DHT22;65498;50.916;4.698;2023-04-03T05:17:40;19.60;43.30
76607;DHT22;65498;50.916;4.698;2023-04-03T05:20:08;19.60;43.20
76607;DHT22;65498;50.916;4.698;2023-04-03T05:22:36;19.60;43.20
76607;DHT22;65498;50.916;4.698;2023-04-03T05:25:04;19.60;43.50
76607;DHT22;65498;50.916;4.698;2023-04-03T05:27:52;19.60;43.30
76607;DHT22;65498;50.916;4.698;2023-04-03T05:30:20;19.60;43.40
76607;DHT22;65498;50.916;4.698;2023-04-03T05:32:47;19.60;43.40
76607;DHT22;65498;50.916;4.698;2023-04-03T05:35:15;19.60;43.30
76607;DHT22;65498;50.916;4.698;2023-04-03T05:37:43;19.60;43.90
76607;DHT22;65498;50.916;4.698;2023-04-03T05:40:10;19.60;43.10
76607;DHT22;65498;50.916;4.698;2023-04-03T05:42:38;19.60;43.10
76607;DHT22;65498;50.916;4.698;2023-04-03T05:45:06;19.60;42.90
76607;DHT22;65498;50.916;4.698;2023-04-03T05:47:34;19.60;43.10
76607;DHT22;65498;50.916;4.698;2023-04-03T05:50:02;19.60;42.90
76607;DHT22;65498;50.916;4.698;2023-04-03T05:52:33;19.70;42.80
76607;DHT22;65498;50.916;4.698;2023-04-03T05:55:00;19.70;42.60
76607;DHT22;65498;50.916;4.698;2023-04-03T05:57:28;19.80;42.50
76607;DHT22;65498;50.916;4.698;2023-04-03T05:59:55;19.80;42.60
76607;DHT22;65498;50.916;4.698;2023-04-03T06:02:24;19.80;42.40
76607;DHT22;65498;50.916;4.698;2023-04-03T06:04:52;19.80;42.40
76607;DHT22;65498;50.916;4.698;2023-04-03T06:07:21;19.90;42.70
76607;DHT22;65498;50.916;4.698;2023-04-03T06:09:51;19.90;42.30
76607;DHT22;65498;50.916;4.698;2023-04-03T06:12:19;19.90;42.40
76607;DHT22;65498;50.916;4.698;2023-04-03T06:14:47;19.90;42.20
76607;DHT22;65498;50.916;4.698;2023-04-03T06:17:16;19.90;42.30
76607;DHT22;65498;50.916;4.698;2023-04-03T06:19:45;19.90;42.10
76607;DHT22;65498;50.916;4.698;2023-04-03T06:22:12;20.00;42.10
76607;DHT22;65498;50.916;4.698;2023-04-03T06:24:41;19.90;42.00
76607;DHT22;65498;50.916;4.698;2023-04-03T06:29:45;19.90;42.00
76607;DHT22;65498;50.916;4.698;2023-04-03T06:32:13;19.90;41.90
76607;DHT22;65498;50.916;4.698;2023-04-03T06:34:40;19.90;42.00
76607;DHT22;65498;50.916;4.698;2023-04-03T06:37:15;20.00;42.70
76607;DHT22;65498;50.916;4.698;2023-04-03T06:39:38;20.10;42.90
76607;DHT22;65498;50.916;4.698;2023-04-03T06:42:06;20.10;42.10
76607;DHT22;65498;50.916;4.698;2023-04-03T06:44:34;20.10;42.10
76607;DHT22;65498;50.916;4.698;2023-04-03T06:47:01;19.90;42.20
76607;DHT22;65498;50.916;4.698;2023-04-03T06:49:29;19.90;42.30
76607;DHT22;65498;50.916;4.698;2023-04-03T06:51:56;19.90;42.40
76607;DHT22;65498;50.916;4.698;2023-04-03T06:54:24;19.90;42.70
76607;DHT22;65498;50.916;4.698;2023-04-03T06:56:51;19.80;42.40
76607;DHT22;65498;50.916;4.698;2023-04-03T06:59:19;19.90;42.40
76607;DHT22;65498;50.916;4.698;2023-04-03T07:01:46;19.90;42.60
76607;DHT22;65498;50.916;4.698;2023-04-03T07:04:15;19.90;42.50
76607;DHT22;65498;50.916;4.698;2023-04-03T07:06:43;19.80;42.60
76607;DHT22;65498;50.916;4.698;2023-04-03T07:09:11;19.70;42.70
76607;DHT22;65498;50.916;4.698;2023-04-03T07:11:38;19.80;42.60
76607;DHT22;65498;50.916;4.698;2023-04-03T07:14:06;20.00;44.20
76607;DHT22;65498;50.916;4.698;2023-04-03T07:16:35;20.20;42.90
76607;DHT22;65498;50.916;4.698;2023-04-03T07:19:03;20.10;42.50
76607;DHT22;65498;50.916;4.698;2023-04-03T07:21:30;20.00;42.20
76607;DHT22;65498;50.916;4.698;2023-04-03T07:23:58;19.90;42.40
76607;DHT22;65498;50.916;4.698;2023-04-03T07:26:25;19.80;42.70
76607;DHT22;65498;50.916;4.698;2023-04-03T07:28:53;19.70;42.80
76607;DHT22;65498;50.916;4.698;2023-04-03T07:31:20;19.80;43.10
76607;DHT22;65498;50.916;4.698;2023-04-03T07:33:49;19.70;43.20
76607;DHT22;65498;50.916;4.698;2023-04-03T07:36:19;19.70;43.10
76607;DHT22;65498;50.916;4.698;2023-04-03T07:38:46;19.70;43.00
76607;DHT22;65498;50.916;4.698;2023-04-03T07:41:16;19.70;43.30
76607;DHT22;65498;50.916;4.698;2023-04-03T07:43:45;19.80;43.80
76607;DHT22;65498;50.916;4.698;2023-04-03T07:46:13;19.90;43.10
76607;DHT22;65498;50.916;4.698;2023-04-03T07:48:41;20.10;42.80
76607;DHT22;65498;50.916;4.698;2023-04-03T07:51:09;20.10;42.50
76607;DHT22;65498;50.916;4.698;2023-04-03T07:53:37;20.20;42.40
76607;DHT22;65498;50.916;4.698;2023-04-03T07:56:04;20.30;42.30
76607;DHT22;65498;50.916;4.698;2023-04-03T07:58:32;20.40;42.30
76607;DHT22;65498;50.916;4.698;2023-04-03T08:01:00;20.40;42.30
76607;DHT22;65498;50.916;4.698;2023-04-03T08:03:28;20.40;42.50
76607;DHT22;65498;50.916;4.698;2023-04-03T08:06:00;20.50;42.50
76607;DHT22;65498;50.916;4.698;2023-04-03T08:08:25;20.40;42.30
76607;DHT22;65498;50.916;4.698;2023-04-03T08:10:53;20.50;42.50
76607;DHT22;65498;50.916;4.698;2023-04-03T08:13:22;20.50;42.50
76607;DHT22;65498;50.916;4.698;2023-04-03T08:15:50;20.50;42.50
76607;DHT22;65498;50.916;4.698;2023-04-03T08:18:18;20.60;42.50
76607;DHT22;65498;50.916;4.698;2023-04-03T08:20:47;20.60;43.60
76607;DHT22;65498;50.916;4.698;2023-04-03T08:23:15;20.60;43.20
76607;DHT22;65498;50.916;4.698;2023-04-03T08:25:43;20.60;44.00
76607;DHT22;65498;50.916;4.698;2023-04-03T08:28:12;20.60;43.60
76607;DHT22;65498;50.916;4.698;2023-04-03T08:30:41;20.70;43.60
76607;DHT22;65498;50.916;4.698;2023-04-03T08:33:09;20.70;43.70
76607;DHT22;65498;50.916;4.698;2023-04-03T08:35:40;20.70;43.70
76607;DHT22;65498;50.916;4.698;2023-04-03T08:38:09;20.70;43.70
76607;DHT22;65498;50.916;4.698;2023-04-03T08:40:38;20.80;44.40
76607;DHT22;65498;50.916;4.698;2023-04-03T08:43:19;20.80;43.60
76607;DHT22;65498;50.916;4.698;2023-04-03T08:45:50;20.80;43.70
76607;DHT22;65498;50.916;4.698;2023-04-03T08:48:42;20.90;43.70
76607;DHT22;65498;50.916;4.698;2023-04-03T08:51:15;20.90;43.90
76607;DHT22;65498;50.916;4.698;2023-04-03T08:54:01;21.00;43.60
76607;DHT22;65498;50.916;4.698;2023-04-03T08:56:31;21.00;43.50
76607;DHT22;65498;50.916;4.698;2023-04-03T08:59:06;21.10;43.60
76607;DHT22;65498;50.916;4.698;2023-04-03T09:01:42;21.10;44.20
76607;DHT22;65498;50.916;4.698;2023-04-03T09:04:11;21.10;43.60
76607;DHT22;65498;50.916;4.698;2023-04-03T09:06:40;21.10;43.60
76607;DHT22;65498;50.916;4.698;2023-04-03T09:11:57;21.10;43.50
76607;DHT22;65498;50.916;4.698;2023-04-03T09:14:36;21.20;44.20
76607;DHT22;65498;50.916;4.698;2023-04-03T09:19:41;21.30;43.40
76607;DHT22;65498;50.916;4.698;2023-04-03T09:22:22;21.30;43.20
76607;DHT22;65498;50.916;4.698;2023-04-03T09:25:02;21.30;43.40
76607;DHT22;65498;50.916;4.698;2023-04-03T09:27:27;21.30;43.50
76607;DHT22;65498;50.916;4.698;2023-04-03T09:29:56;21.20;43.50
76607;DHT22;65498;50.916;4.698;2023-04-03T09:32:32;21.10;43.30
76607;DHT22;65498;50.916;4.698;2023-04-03T09:35:03;21.10;43.50
76607;DHT22;65498;50.916;4.698;2023-04-03T09:40:05;21.10;43.30
76607;DHT22;65498;50.916;4.698;2023-04-03T09:42:35;21.00;44.40
76607;DHT22;65498;50.916;4.698;2023-04-03T09:45:18;21.10;44.60
76607;DHT22;65498;50.916;4.698;2023-04-03T09:47:36;21.10;44.50
76607;DHT22;65498;50.916;4.698;2023-04-03T09:52:49;21.30;44.10
76607;DHT22;65498;50.916;4.698;2023-04-03T09:55:27;21.30;43.80
76607;DHT22;65498;50.916;4.698;2023-04-03T09:58:01;21.40;43.90
76607;DHT22;65498;50.916;4.698;2023-04-03T10:00:38;21.40;43.90
76607;DHT22;65498;50.916;4.698;2023-04-03T10:03:23;21.50;45.00
76607;DHT22;65498;50.916;4.698;2023-04-03T10:05:41;21.40;44.50
76607;DHT22;65498;50.916;4.698;2023-04-03T10:10:44;21.40;44.60
76607;DHT22;65498;50.916;4.698;2023-04-03T10:13:15;21.50;44.40
76607;DHT22;65498;50.916;4.698;2023-04-03T10:15:50;21.50;44.70
76607;DHT22;65498;50.916;4.698;2023-04-03T10:21:08;21.50;44.40
76607;DHT22;65498;50.916;4.698;2023-04-03T10:23:54;21.50;44.20
76607;DHT22;65498;50.916;4.698;2023-04-03T10:26:29;21.50;44.30
76607;DHT22;65498;50.916;4.698;2023-04-03T10:29:04;21.50;43.70
76607;DHT22;65498;50.916;4.698;2023-04-03T10:31:46;21.30;43.50
76607;DHT22;65498;50.916;4.698;2023-04-03T10:37:10;21.00;43.80
76607;DHT22;65498;50.916;4.698;2023-04-03T10:39:36;21.00;44.00
76607;DHT22;65498;50.916;4.698;2023-04-03T10:42:08;21.00;43.20
76607;DHT22;65498;50.916;4.698;2023-04-03T10:45:10;20.90;43.40
76607;DHT22;65498;50.916;4.698;2023-04-03T10:47:44;20.90;43.40
76607;DHT22;65498;50.916;4.698;2023-04-03T10:52:57;20.80;43.70
76607;DHT22;65498;50.916;4.698;2023-04-03T10:55:38;20.80;42.70
76607;DHT22;65498;50.916;4.698;2023-04-03T10:58:06;20.80;42.70
76607;DHT22;65498;50.916;4.698;2023-04-03T11:00:45;20.80;43.00
76607;DHT22;65498;50.916;4.698;2023-04-03T11:03:30;20.80;42.50
76607;DHT22;65498;50.916;4.698;2023-04-03T11:06:01;20.80;41.90
76607;DHT22;65498;50.916;4.698;2023-04-03T11:08:57;20.70;43.00
76607;DHT22;65498;50.916;4.698;2023-04-03T11:11:27;20.80;42.10
76607;DHT22;65498;50.916;4.698;2023-04-03T11:16:31;20.70;42.10
76607;DHT22;65498;50.916;4.698;2023-04-03T11:21:52;20.70;41.90
76607;DHT22;65498;50.916;4.698;2023-04-03T11:24:25;20.70;42.10
76607;DHT22;65498;50.916;4.698;2023-04-03T11:26:54;20.60;42.40
76607;DHT22;65498;50.916;4.698;2023-04-03T11:29:26;20.60;42.00
76607;DHT22;65498;50.916;4.698;2023-04-03T11:35:01;20.60;42.20
76607;DHT22;65498;50.916;4.698;2023-04-03T11:37:34;20.60;42.30
76607;DHT22;65498;50.916;4.698;2023-04-03T11:40:08;20.60;42.30
76607;DHT22;65498;50.916;4.698;2023-04-03T11:42:41;20.60;41.80
76607;DHT22;65498;50.916;4.698;2023-04-03T11:45:31;20.60;42.70
76607;DHT22;65498;50.916;4.698;2023-04-03T11:48:47;20.60;42.60
76607;DHT22;65498;50.916;4.698;2023-04-03T11:53:32;20.60;42.20
76607;DHT22;65498;50.916;4.698;2023-04-03T11:58:22;20.60;42.80
76607;DHT22;65498;50.916;4.698;2023-04-03T12:01:10;20.60;43.00
76607;DHT22;65498;50.916;4.698;2023-04-03T12:03:56;20.50;43.90
76607;DHT22;65498;50.916;4.698;2023-04-03T12:08:51;20.50;43.40
76607;DHT22;65498;50.916;4.698;2023-04-03T12:11:29;20.50;43.40
76607;DHT22;65498;50.916;4.698;2023-04-03T12:19:00;20.60;43.50
76607;DHT22;65498;50.916;4.698;2023-04-03T12:29:33;20.60;42.40
76607;DHT22;65498;50.916;4.698;2023-04-03T12:32:08;20.60;42.90
76607;DHT22;65498;50.916;4.698;2023-04-03T12:40:50;20.60;43.10
76607;DHT22;65498;50.916;4.698;2023-04-03T12:43:41;20.60;43.70
76607;DHT22;65498;50.916;4.698;2023-04-03T12:51:20;20.60;43.10
76607;DHT22;65498;50.916;4.698;2023-04-03T12:53:45;20.50;43.10
76607;DHT22;65498;50.916;4.698;2023-04-03T12:56:22;20.50;43.20
76607;DHT22;65498;50.916;4.698;2023-04-03T12:58:52;20.50;43.10
76607;DHT22;65498;50.916;4.698;2023-04-03T13:01:26;20.50;43.00
76607;DHT22;65498;50.916;4.698;2023-04-03T13:03:56;20.50;43.00
76607;DHT22;65498;50.916;4.698;2023-04-03T13:06:27;20.60;42.00
76607;DHT22;65498;50.916;4.698;2023-04-03T13:08:57;20.50;42.90
76607;DHT22;65498;50.916;4.698;2023-04-03T13:11:32;20.50;42.50
76607;DHT22;65498;50.916;4.698;2023-04-03T13:14:02;20.50;42.20
76607;DHT22;65498;50.916;4.698;2023-04-03T13:16:33;20.50;43.20
76607;DHT22;65498;50.916;4.698;2023-04-03T13:19:00;20.40;43.60
76607;DHT22;65498;50.916;4.698;2023-04-03T13:21:30;20.50;43.40
76607;DHT22;65498;50.916;4.698;2023-04-03T13:23:58;20.50;43.40
76607;DHT22;65498;50.916;4.698;2023-04-03T13:26:29;20.50;43.60
76607;DHT22;65498;50.916;4.698;2023-04-03T13:29:05;20.60;43.60
76607;DHT22;65498;50.916;4.698;2023-04-03T13:31:36;20.60;43.50
76607;DHT22;65498;50.916;4.698;2023-04-03T13:34:07;20.60;43.10
76607;DHT22;65498;50.916;4.698;2023-04-03T13:36:40;20.60;42.70
76607;DHT22;65498;50.916;4.698;2023-04-03T13:41:48;20.60;42.60
76607;DHT22;65498;50.916;4.698;2023-04-03T13:46:54;20.60;43.40
76607;DHT22;65498;50.916;4.698;2023-04-03T13:51:55;20.70;42.90
76607;DHT22;65498;50.916;4.698;2023-04-03T13:54:28;20.70;42.80
76607;DHT22;65498;50.916;4.698;2023-04-03T13:56:56;20.70;42.80
76607;DHT22;65498;50.916;4.698;2023-04-03T13:59:32;20.80;42.90
76607;DHT22;65498;50.916;4.698;2023-04-03T14:07:12;20.90;42.90
76607;DHT22;65498;50.916;4.698;2023-04-03T14:09:41;20.90;43.00
76607;DHT22;65498;50.916;4.698;2023-04-03T14:12:33;20.90;42.10
76607;DHT22;65498;50.916;4.698;2023-04-03T14:14:40;21.00;42.40
76607;DHT22;65498;50.916;4.698;2023-04-03T14:17:17;21.00;42.50
76607;DHT22;65498;50.916;4.698;2023-04-03T14:19:41;21.00;42.40
76607;DHT22;65498;50.916;4.698;2023-04-03T14:22:24;21.00;42.40
76607;DHT22;65498;50.916;4.698;2023-04-03T14:24:49;21.00;42.50
76607;DHT22;65498;50.916;4.698;2023-04-03T14:29:50;21.00;42.30
76607;DHT22;65498;50.916;4.698;2023-04-03T14:32:23;21.10;42.10
76607;DHT22;65498;50.916;4.698;2023-04-03T14:34:49;21.10;41.80
76607;DHT22;65498;50.916;4.698;2023-04-03T14:37:21;21.20;41.90
76607;DHT22;65498;50.916;4.698;2023-04-03T14:39:49;21.20;41.60
76607;DHT22;65498;50.916;4.698;2023-04-03T14:42:20;21.20;41.30
76607;DHT22;65498;50.916;4.698;2023-04-03T14:44:48;21.20;41.30
76607;DHT22;65498;50.916;4.698;2023-04-03T14:47:21;21.20;41.20
76607;DHT22;65498;50.916;4.698;2023-04-03T14:49:49;21.30;41.10
76607;DHT22;65498;50.916;4.698;2023-04-03T14:52:22;21.20;40.70
76607;DHT22;65498;50.916;4.698;2023-04-03T14:54:51;21.30;40.60
76607;DHT22;65498;50.916;4.698;2023-04-03T14:57:19;21.30;40.10
76607;DHT22;65498;50.916;4.698;2023-04-03T14:59:48;21.40;40.50
76607;DHT22;65498;50.916;4.698;2023-04-03T15:02:27;21.30;40.40
76607;DHT22;65498;50.916;4.698;2023-04-03T15:04:59;21.30;40.50
76607;DHT22;65498;50.916;4.698;2023-04-03T15:07:28;21.30;40.60
76607;DHT22;65498;50.916;4.698;2023-04-03T15:09:56;21.40;40.40
76607;DHT22;65498;50.916;4.698;2023-04-03T15:12:25;21.40;40.00
76607;DHT22;65498;50.916;4.698;2023-04-03T15:14:53;21.50;40.00
76607;DHT22;65498;50.916;4.698;2023-04-03T15:17:22;21.50;39.50
76607;DHT22;65498;50.916;4.698;2023-04-03T15:19:50;21.60;39.40
76607;DHT22;65498;50.916;4.698;2023-04-03T15:22:19;21.50;39.20
76607;DHT22;65498;50.916;4.698;2023-04-03T15:24:47;21.50;39.50
76607;DHT22;65498;50.916;4.698;2023-04-03T15:27:14;21.50;39.60
76607;DHT22;65498;50.916;4.698;2023-04-03T15:29:43;21.50;39.40
76607;DHT22;65498;50.916;4.698;2023-04-03T15:32:12;21.50;39.40
76607;DHT22;65498;50.916;4.698;2023-04-03T15:34:40;21.60;39.40
76607;DHT22;65498;50.916;4.698;2023-04-03T15:37:07;21.60;39.40
76607;DHT22;65498;50.916;4.698;2023-04-03T15:39:35;21.50;39.40
76607;DHT22;65498;50.916;4.698;2023-04-03T15:42:02;21.60;39.40
76607;DHT22;65498;50.916;4.698;2023-04-03T15:44:34;21.50;39.40
76607;DHT22;65498;50.916;4.698;2023-04-03T15:47:02;21.60;39.30
76607;DHT22;65498;50.916;4.698;2023-04-03T15:49:32;21.60;39.30
76607;DHT22;65498;50.916;4.698;2023-04-03T15:52:00;21.60;39.10
76607;DHT22;65498;50.916;4.698;2023-04-03T15:54:28;21.50;39.10
76607;DHT22;65498;50.916;4.698;2023-04-03T15:56:56;21.50;39.20
76607;DHT22;65498;50.916;4.698;2023-04-03T15:59:23;21.60;39.30
76607;DHT22;65498;50.916;4.698;2023-04-03T16:01:51;21.60;39.30
76607;DHT22;65498;50.916;4.698;2023-04-03T16:04:19;21.50;39.20
76607;DHT22;65498;50.916;4.698;2023-04-03T16:06:48;21.50;39.10
76607;DHT22;65498;50.916;4.698;2023-04-03T16:09:17;21.50;39.10
76607;DHT22;65498;50.916;4.698;2023-04-03T16:11:44;21.60;38.90
76607;DHT22;65498;50.916;4.698;2023-04-03T16:14:12;21.50;38.60
76607;DHT22;65498;50.916;4.698;2023-04-03T16:16:39;21.50;38.60
76607;DHT22;65498;50.916;4.698;2023-04-03T16:19:07;21.50;38.50
76607;DHT22;65498;50.916;4.698;2023-04-03T16:21:36;21.50;38.50
76607;DHT22;65498;50.916;4.698;2023-04-03T16:24:03;21.50;38.40
76607;DHT22;65498;50.916;4.698;2023-04-03T16:26:32;21.50;38.50
76607;DHT22;65498;50.916;4.698;2023-04-03T16:28:59;21.60;38.50
76607;DHT22;65498;50.916;4.698;2023-04-03T16:31:27;21.60;38.50
76607;DHT22;65498;50.916;4.698;2023-04-03T16:33:56;21.60;38.60
76607;DHT22;65498;50.916;4.698;2023-04-03T16:36:24;21.50;38.70
76607;DHT22;65498;50.916;4.698;2023-04-03T16:38:52;21.50;38.70
76607;DHT22;65498;50.916;4.698;2023-04-03T16:41:19;21.50;38.70
76607;DHT22;65498;50.916;4.698;2023-04-03T16:43:47;21.50;38.60
76607;DHT22;65498;50.916;4.698;2023-04-03T16:46:14;21.50;38.70
76607;DHT22;65498;50.916;4.698;2023-04-03T16:48:42;21.50;38.80
76607;DHT22;65498;50.916;4.698;2023-04-03T16:51:09;21.50;38.70
76607;DHT22;65498;50.916;4.698;2023-04-03T16:53:37;21.50;38.80
76607;DHT22;65498;50.916;4.698;2023-04-03T16:56:05;21.50;38.90
76607;DHT22;65498;50.916;4.698;2023-04-03T16:58:32;21.50;38.90
76607;DHT22;65498;50.916;4.698;2023-04-03T17:01:11;21.50;38.90
76607;DHT22;65498;50.916;4.698;2023-04-03T17:03:39;21.50;38.90
76607;DHT22;65498;50.916;4.698;2023-04-03T17:06:07;21.50;38.90
76607;DHT22;65498;50.916;4.698;2023-04-03T17:08:36;21.40;39.10
76607;DHT22;65498;50.916;4.698;2023-04-03T17:11:04;21.40;39.10